Home > Products > Valid Products > MTR

000
SAUS46 KSGX 262153
MTRCZZ
METAR KCZZ 262152Z AUTO 28009KT 19/07 A2992 RMK AO1 SLP112 T01890067





000
SAUS46 KSGX 262053
MTRCZZ
METAR KCZZ 262052Z AUTO 28011G16KT 18/08 A2993 RMK AO1 SLP115
T01830078 56011





000
SAUS46 KSGX 262053
MTRCZZ
METAR KCZZ 262052Z AUTO 28011G16KT 18/08 A2993 RMK AO1 SLP115
T01830078 56011





000
SAUS46 KSGX 261953
MTRCZZ
METAR KCZZ 261952Z AUTO 20012G19KT 16/09 A2994 RMK AO1 SLP120
T01610089





000
SAUS46 KSGX 261853
MTRCZZ
METAR KCZZ 261852Z AUTO 22011G16KT 15/08 A2995 RMK AO1 SLP124
T01500083





000
SAUS46 KSGX 261853
MTRCZZ
METAR KCZZ 261852Z AUTO 22011G16KT 15/08 A2995 RMK AO1 SLP124
T01500083





000
SAUS46 KSGX 261753
MTRCZZ
METAR KCZZ 261752Z AUTO 22004KT 13/09 A2997 RMK AO1 SLP131 T01330089
10133 20072 50006





000
SAUS46 KSGX 261753
MTRCZZ
METAR KCZZ 261752Z AUTO 22004KT 13/09 A2997 RMK AO1 SLP131 T01330089
10133 20072 50006





000
SAUS46 KSGX 261653
MTRCZZ
METAR KCZZ 261652Z AUTO VRB03KT 12/09 A2997 RMK AO1 SLP132 T01170089





000
SAUS46 KSGX 261653
MTRCZZ
METAR KCZZ 261652Z AUTO VRB03KT 12/09 A2997 RMK AO1 SLP132 T01170089





000
SAUS46 KSGX 261553
MTRCZZ
METAR KCZZ 261552Z AUTO 17005KT 09/08 A2996 RMK AO1 SLP131 T00940078





000
SAUS46 KSGX 261553
MTRCZZ
METAR KCZZ 261552Z AUTO 17005KT 09/08 A2996 RMK AO1 SLP131 T00940078





000
SAUS46 KSGX 261453
MTRCZZ
METAR KCZZ 261452Z AUTO 20004KT 09/08 A2995 RMK AO1 SLP126 T00890083
51010





000
SAUS46 KSGX 261353
MTRCZZ
METAR KCZZ 261352Z AUTO 01003KT 07/07 A2994 RMK AO1 SLP126 T00720067





000
SAUS46 KSGX 261253
MTRCZZ
METAR KCZZ 261252Z AUTO 24006KT 08/07 A2993 RMK AO1 SLP121 T00830072





000
SAUS46 KSGX 261253
MTRCZZ
METAR KCZZ 261252Z AUTO 24006KT 08/07 A2993 RMK AO1 SLP121 T00830072





000
SAUS46 KSGX 261153
MTRCZZ
METAR KCZZ 261152Z AUTO 22008KT 08/08 A2992 RMK AO1 SLP116 70018
T00830078 10094 20083 53001





000
SAUS46 KSGX 261153
MTRCZZ
METAR KCZZ 261152Z AUTO 22008KT 08/08 A2992 RMK AO1 SLP116 70018
T00830078 10094 20083 53001





000
SAUS46 KSGX 261053
MTRCZZ
METAR KCZZ 261052Z AUTO 22005KT 08/08 A2991 RMK AO1 SLP113 T00830078





000
SAUS46 KSGX 261053
MTRCZZ
METAR KCZZ 261052Z AUTO 22005KT 08/08 A2991 RMK AO1 SLP113 T00830078





000
SAUS46 KSGX 260953
MTRCZZ
METAR KCZZ 260952Z AUTO 22007KT 08/08 A2991 RMK AO1 SLP113 T00830083





000
SAUS46 KSGX 260953
MTRCZZ
METAR KCZZ 260952Z AUTO 22007KT 08/08 A2991 RMK AO1 SLP113 T00830083





000
SAUS46 KSGX 260853
MTRCZZ
METAR KCZZ 260852Z AUTO 21007KT 09/08 A2991 RMK AO1 SLP113 T00890078
50005





000
SAUS46 KSGX 260754
MTRCZZ
METAR KCZZ 260752Z AUTO 24008KT 09/08 A2992 RMK AO1 SLP115 T00890078
401280089





000
SAUS46 KSGX 260754
MTRCZZ
METAR KCZZ 260752Z AUTO 24008KT 09/08 A2992 RMK AO1 SLP115 T00890078
401280089





000
SAUS46 KSGX 260653
MTRCZZ
METAR KCZZ 260652Z AUTO 25008KT 09/08 A2992 RMK AO1 SLP117 T00890078





000
SAUS46 KSGX 260653
MTRCZZ
METAR KCZZ 260652Z AUTO 25008KT 09/08 A2992 RMK AO1 SLP117 T00890078





000
SAUS46 KSGX 260554
MTRCZZ
METAR KCZZ 260552Z AUTO 25014G22KT 09/07 A2990 RMK AO1 PK WND
28030/0522 SLP108 60018 T00940072 10117 20094 51014





000
SAUS46 KSGX 260554
MTRCZZ
METAR KCZZ 260552Z AUTO 25014G22KT 09/07 A2990 RMK AO1 PK WND
28030/0522 SLP108 60018 T00940072 10117 20094 51014





000
SAUS46 KSGX 260454
MTRCZZ
METAR KCZZ 260452Z AUTO 27014G22KT 10/08 A2989 RMK AO1 PK WND
25026/0359 SLP108 P0008 T01000078





000
SAUS46 KSGX 260353
MTRCZZ
METAR KCZZ 260352Z AUTO 25017G27KT 11/09 A2988 RMK AO1 PK WND
22033/0258 SLP101 P0007 T01060094





000
SAUS46 KSGX 260253
MTRCZZ
METAR KCZZ 260252Z AUTO 24015G32KT 11/09 A2985 RMK AO1 PK WND
24032/0249 SLP092 P0003 60003 T01060094 56004





000
SAUS46 KSGX 260253
MTRCZZ
METAR KCZZ 260252Z AUTO 24015G32KT 11/09 A2985 RMK AO1 PK WND
24032/0249 SLP092 P0003 60003 T01060094 56004





000
SAUS46 KSGX 260154
MTRCZZ
METAR KCZZ 260152Z AUTO 23017G30KT 10/09 A2985 RMK AO1 PK WND
25033/0115 SLP095 T01000094





000
SAUS46 KSGX 260054
MTRCZZ
METAR KCZZ 260052Z AUTO 24014G30KT 11/09 A2986 RMK AO1 PK WND
25031/0008 SLP096 T01060089





000
SAUS46 KSGX 260054
MTRCZZ
METAR KCZZ 260052Z AUTO 24014G30KT 11/09 A2986 RMK AO1 PK WND
25031/0008 SLP096 T01060089





000
SAUS46 KSGX 252354
MTRCZZ
METAR KCZZ 252352Z AUTO 24018G30KT 12/07 A2986 RMK AO1 PK WND
23030/2345 SLP096 T01170067 10128 20111 56024





000
SAUS46 KSGX 252354
MTRCZZ
METAR KCZZ 252352Z AUTO 24018G30KT 12/07 A2986 RMK AO1 PK WND
23030/2345 SLP096 T01170067 10128 20111 56024





000
SAUS46 KSGX 252254
MTRCZZ
METAR KCZZ 252252Z AUTO 24022G28KT 12/08 A2988 RMK AO1 PK WND
24029/2226 SLP104 T01220078





000
SAUS46 KSGX 252254
MTRCZZ
METAR KCZZ 252252Z AUTO 24022G28KT 12/08 A2988 RMK AO1 PK WND
24029/2226 SLP104 T01220078





000
SAUS46 KSGX 252153
MTRCZZ
METAR KCZZ 252152Z AUTO 23019G26KT 12/07 A2991 RMK AO1 PK WND
23028/2122 SLP113 T01220072





000
SAUS46 KSGX 252053
MTRCZZ
METAR KCZZ 252052Z AUTO 23017G26KT 12/07 A2994 RMK AO1 PK WND
24026/2043 SLP123 T01220072 58009





000
SAUS46 KSGX 251953
MTRCZZ
METAR KCZZ 251952Z AUTO 24016KT 12/07 A2995 RMK AO1 SLP127 T01220067





000
SAUS46 KSGX 251853
MTRCZZ
METAR KCZZ 251852Z AUTO 24013KT 12/08 A2997 RMK AO1 SLP132 T01170078





000
SAUS46 KSGX 251753
MTRCZZ
METAR KCZZ 251752Z AUTO 23010KT 11/08 A2997 RMK AO1 SLP134 T01110083
10117 20089 50006





000
SAUS46 KSGX 251653
MTRCZZ
METAR KCZZ 251652Z AUTO 22010KT 10/08 A2998 RMK AO1 SLP136 T01000083





000
SAUS46 KSGX 251553
MTRCZZ
METAR KCZZ 251552Z AUTO 23009KT 10/08 A2996 RMK AO1 SLP131 T01000078





000
SAUS46 KSGX 251453
MTRCZZ
METAR KCZZ 251452Z AUTO 24012KT 10/08 A2995 RMK AO1 SLP128 T01000078
50005





000
SAUS46 KSGX 251353
MTRCZZ
METAR KCZZ 251352Z AUTO 23008KT 09/07 A2996 RMK AO1 SLP129 T00890072





000
SAUS46 KSGX 251353
MTRCZZ
METAR KCZZ 251352Z AUTO 23008KT 09/07 A2996 RMK AO1 SLP129 T00890072





000
SAUS46 KSGX 251253
MTRCZZ
METAR KCZZ 251252Z AUTO 23012KT 09/07 A2995 RMK AO1 SLP126 T00890072





000
SAUS46 KSGX 251153
MTRCZZ
METAR KCZZ 251152Z AUTO 23010KT 09/07 A2994 RMK AO1 SLP122 70004
T00890072 10094 20089 58007





000
SAUS46 KSGX 251153
MTRCZZ
METAR KCZZ 251152Z AUTO 23010KT 09/07 A2994 RMK AO1 SLP122 70004
T00890072 10094 20089 58007





000
SAUS46 KSGX 251053
MTRCZZ
METAR KCZZ 251052Z AUTO 23012KT 09/08 A2995 RMK AO1 SLP127 T00890078





000
SAUS46 KSGX 251053
MTRCZZ
METAR KCZZ 251052Z AUTO 23012KT 09/08 A2995 RMK AO1 SLP127 T00890078





000
SAUS46 KSGX 250953
MTRCZZ
METAR KCZZ 250952Z AUTO 24008KT 09/08 A2995 RMK AO1 SLP126 T00940078





000
SAUS46 KSGX 250853
MTRCZZ
METAR KCZZ 250852Z AUTO 23005KT 09/08 A2996 RMK AO1 SLP130 T00890078
58006





000
SAUS46 KSGX 250753
MTRCZZ
METAR KCZZ 250752Z AUTO 23012KT 09/08 A2998 RMK AO1 SLP135 T00890078
401280089





000
SAUS46 KSGX 250753
MTRCZZ
METAR KCZZ 250752Z AUTO 23012KT 09/08 A2998 RMK AO1 SLP135 T00890078
401280089





000
SAUS46 KSGX 250653
MTRCZZ
METAR KCZZ 250652Z AUTO 24011KT 09/08 A2998 RMK AO1 SLP135 T00940083





000
SAUS46 KSGX 250553
MTRCZZ
METAR KCZZ 250552Z AUTO 24010KT 09/08 A2998 RMK AO1 SLP137 60001
T00940083 10111 20094 50005





000
SAUS46 KSGX 250553
MTRCZZ
METAR KCZZ 250552Z AUTO 24010KT 09/08 A2998 RMK AO1 SLP137 60001
T00940083 10111 20094 50005





000
SAUS46 KSGX 250453
MTRCZZ
METAR KCZZ 250452Z AUTO 24011KT 09/08 A2999 RMK AO1 SLP140 T00940083





000
SAUS46 KSGX 250353
MTRCZZ
METAR KCZZ 250352Z AUTO 24011KT 10/09 A2998 RMK AO1 SLP136 P0001
T01000089





000
SAUS46 KSGX 250253
MTRCZZ
METAR KCZZ 250252Z AUTO 25008KT 10/09 A2996 RMK AO1 SLP131 T01000089
55000





000
SAUS46 KSGX 250253
MTRCZZ
METAR KCZZ 250252Z AUTO 25008KT 10/09 A2996 RMK AO1 SLP131 T01000089
55000





000
SAUS46 KSGX 250153
MTRCZZ
METAR KCZZ 250152Z AUTO 25008KT 11/09 A2995 RMK AO1 SLP128 T01060089





000
SAUS46 KSGX 250053
MTRCZZ
METAR KCZZ 250052Z AUTO 26007KT 11/09 A2996 RMK AO1 SLP130 T01060094





000
SAUS46 KSGX 242353
MTRCZZ
METAR KCZZ 242352Z AUTO 26009KT 11/09 A2996 RMK AO1 SLP132 T01060089
10128 20100 56008





000
SAUS46 KSGX 242353
MTRCZZ
METAR KCZZ 242352Z AUTO 26009KT 11/09 A2996 RMK AO1 SLP132 T01060089
10128 20100 56008





000
SAUS46 KSGX 242253
MTRCZZ
METAR KCZZ 242252Z AUTO 24009KT 11/09 A2997 RMK AO1 SLP133 T01110089





000
SAUS46 KSGX 242153
MTRCZZ
METAR KCZZ 242152Z AUTO 23012KT 12/09 A2998 RMK AO1 SLP136 T01220089





000
SAUS46 KSGX 242053
MTRCZZ
METAR KCZZ 242052Z AUTO 24011KT 12/09 A2999 RMK AO1 SLP138 T01170089
55001





000
SAUS46 KSGX 241953
MTRCZZ
METAR KCZZ 241952Z AUTO 23009KT 12/08 A2998 RMK AO1 SLP137 T01220083





000
SAUS46 KSGX 241853
MTRCZZ
METAR KCZZ 241852Z AUTO 25010KT 11/08 A2999 RMK AO1 SLP140 T01110083





000
SAUS46 KSGX 241753
MTRCZZ
METAR KCZZ 241752Z AUTO 24010KT 10/09 A2999 RMK AO1 SLP140 60003
T01000094 10106 20089 51013





000
SAUS46 KSGX 241653
MTRCZZ
METAR KCZZ 241652Z AUTO 23011KT 10/09 A2998 RMK AO1 SLP138 T01000089





000
SAUS46 KSGX 241553
MTRCZZ
METAR KCZZ 241552Z AUTO 23009KT 09/08 A2997 RMK AO1 SLP134 T00940083





000
SAUS46 KSGX 241453
MTRCZZ
METAR KCZZ 241452Z AUTO 23011KT 09/09 A2995 RMK AO1 SLP127 60003
T00940089 53015





000
SAUS46 KSGX 241353
MTRCZZ
METAR KCZZ 241352Z AUTO 24009KT 09/08 A2994 RMK AO1 SLP122 P0001
T00890083





000
SAUS46 KSGX 241253
MTRCZZ
METAR KCZZ 241252Z AUTO 23011KT 09/09 A2991 RMK AO1 SLP114 P0002
T00940089





000
SAUS46 KSGX 241153
MTRCZZ
METAR KCZZ 241152Z AUTO 24006KT 09/09 A2990 RMK AO1 SLP109 60002
70002 T00940089 10106 20094 53002





000
SAUS46 KSGX 241153
MTRCZZ
METAR KCZZ 241152Z AUTO 24006KT 09/09 A2990 RMK AO1 SLP109 60002
70002 T00940089 10106 20094 53002





000
SAUS46 KSGX 241053
MTRCZZ
METAR KCZZ 241052Z AUTO 24007KT 10/08 A2990 RMK AO1 SLP109 T01000083





000
SAUS46 KSGX 240953
MTRCZZ
METAR KCZZ 240952Z AUTO 24008KT 10/09 A2989 RMK AO1 SLP104 P0002
T01000089





000
SAUS46 KSGX 240853
MTRCZZ
METAR KCZZ 240852Z AUTO 24007KT 10/09 A2990 RMK AO1 SLP106 T01000089
58003





000
SAUS46 KSGX 240753
MTRCZZ
METAR KCZZ 240752Z AUTO 22009KT 10/09 A2990 RMK AO1 SLP109 T01000089
401560067





000
SAUS46 KSGX 240753
MTRCZZ
METAR KCZZ 240752Z AUTO 22009KT 10/09 A2990 RMK AO1 SLP109 T01000089
401560067





000
SAUS46 KSGX 240653
MTRCZZ
METAR KCZZ 240652Z AUTO 23010KT 10/08 A2991 RMK AO1 SLP111 T01000083





000
SAUS46 KSGX 240653
MTRCZZ
METAR KCZZ 240652Z AUTO 23010KT 10/08 A2991 RMK AO1 SLP111 T01000083





000
SAUS46 KSGX 240553
MTRCZZ
METAR KCZZ 240552Z AUTO 23009KT 11/09 A2991 RMK AO1 SLP111 T01060089
10133 20100 51011





000
SAUS46 KSGX 240553
MTRCZZ
METAR KCZZ 240552Z AUTO 23009KT 11/09 A2991 RMK AO1 SLP111 T01060089
10133 20100 51011





000
SAUS46 KSGX 240453
MTRCZZ
METAR KCZZ 240452Z AUTO 23009KT 11/09 A2991 RMK AO1 SLP111 T01060094





000
SAUS46 KSGX 240353
MTRCZZ
METAR KCZZ 240352Z AUTO 23007KT 11/09 A2990 RMK AO1 SLP107 T01060094





000
SAUS46 KSGX 240353
MTRCZZ
METAR KCZZ 240352Z AUTO 23007KT 11/09 A2990 RMK AO1 SLP107 T01060094





000
SAUS46 KSGX 240253
MTRCZZ
METAR KCZZ 240252Z AUTO 22011KT 11/09 A2987 RMK AO1 SLP099 T01060094
50006





000
SAUS46 KSGX 240153
MTRCZZ
METAR KCZZ 240152Z AUTO 22008KT 11/09 A2988 RMK AO1 SLP102 T01060094





000
SAUS46 KSGX 240153
MTRCZZ
METAR KCZZ 240152Z AUTO 22008KT 11/09 A2988 RMK AO1 SLP102 T01060094





000
SAUS46 KSGX 240053
MTRCZZ
METAR KCZZ 240052Z AUTO 21010KT 12/09 A2987 RMK AO1 SLP099 T01170089





000
SAUS46 KSGX 240053
MTRCZZ
METAR KCZZ 240052Z AUTO 21010KT 12/09 A2987 RMK AO1 SLP099 T01170089





000
SAUS46 KSGX 232353
MTRCZZ
METAR KCZZ 232352Z AUTO 25013G17KT 13/08 A2985 RMK AO1 SLP092
T01330078 10156 20122 56006





000
SAUS46 KSGX 232353
MTRCZZ
METAR KCZZ 232352Z AUTO 25013G17KT 13/08 A2985 RMK AO1 SLP092
T01330078 10156 20122 56006





000
SAUS46 KSGX 232253
MTRCZZ
METAR KCZZ 232252Z AUTO 26012KT 14/07 A2986 RMK AO1 SLP093 T01390072





000
SAUS46 KSGX 232253
MTRCZZ
METAR KCZZ 232252Z AUTO 26012KT 14/07 A2986 RMK AO1 SLP093 T01390072





    US Dept of Commerce
    National Oceanic and Atmospheric Administration
    National Weather Service
    1325 East West Highway
    Silver Spring, MD 20910
    Page Author: NWS Internet Services Team
Disclaimer
Information Quality
Credits
Glossary
Privacy Policy
Freedom of Information Act (FOIA)
About Us
Career Opportunities